Glen Rose, TX (76043)

8:23 PM CDT on April 27, 2015 (GMT -0500)
Opossum Hollow | | Change Station
CLOSE
Current Station
Personal Weather Station
Location: Glen Rose, TX
Elevation: 771 ft
Nearby Weather Stations

Elev 771 ft 32.25 °N, 97.83 °W | Updated 1 minute ago

Partly Cloudy
Partly Cloudy
62.2 °F
Feels Like 62.2 °F
N
3.0
Wind Variable Wind from NE
Gusts 9.0 mph

Today
High -- | Low -- °F
--% Chance of Precip.
Yesterday
High -- | Low -- °F
Precip. -- in
6:48 AM 8:08 PM
Waxing Gibbous, 69% visible
Pressure 29.82 in
Visibility 10.0 miles
Clouds Scattered Clouds 3700 ft
Scattered Clouds 4500 ft
Scattered Clouds 7000 ft
Dew Point 59 °F
Humidity 89%
Rainfall 0.11 in
Snow Depth Not available.
UV 0 out of 12
Pollen 3.70 out of 12
Air Quality Not available.
Flu Activity Local Activity
METAR KGDJ 280115Z AUTO 36007KT 10SM SCT037 SCT045 SCT070 18/15 A2982 RMK AO2 T01760150

More Conditions Fewer Conditions

Pressure 29.82 in
Visibility 10.0 miles
Clouds Scattered Clouds 3700 ft
Scattered Clouds 4500 ft
Scattered Clouds 7000 ft
Dew Point 59 °F
Humidity 89%
Rainfall 0.11 in
Snow Depth Not available.
UV 0 out of 12
Pollen 3.70 out of 12
Air Quality Not available.
Flu Activity Local Activity
METAR KGDJ 280115Z AUTO 36007KT 10SM SCT037 SCT045 SCT070 18/15 A2982 RMK AO2 T01760150

More Conditions Fewer Conditions

10-Day Weather Forecast

Almanac

Astronomy

Apr. 27, 2015 Rise Set
Actual Time
Civil Twilight
Nautical Twilight
Astronomical Twilight
Moon
Length of Visible Light
Length of Day
Tomorrow will be .
, % of the Moon is Illuminated

Today's Extremes

State Highs State Lows

Community

WunderPhotos

Upload Photos

1,817,508 photos uploaded!

WunderBlogs® & News

Nearby

Air Quality

  Air Quality AQ Index Pollutant
Not available.

Snow Depth

Station Depth Elevation

Earthquake Activity

City Distance Mag. Time & Date
Minimum magnitude displayed is 2.5.

Coastal Water Temperatures

Place Temperature

Stations

Nearby Weather Stations

Station Location Temp. Windchill Dew Point Humidity Wind Precip. Elev Updated Type